KSNL

Shawnee Regional Airport

Shawnee, Oklahoma, USA
METAR KSNL 162235Z AUTO 00000KT 10SM CLR 10/M01 A3023 RMK AO2 T01041006
Observed Flight Rules
Dec-16 @ 22:35 UTC (21 minutes ago) Visual Flight Rules
Visibility Clouds
10 miles
  • Clear skies
Temperatures Readings
Current 10°C / 50°F
Dewpoint -1°C / 30°F
Humidity 47%
Altimeter 30.23" Hg
Pressure 1024 hPa
Elevation 327
METAR KSNL 162235Z AUTO 00000KT 10SM CLR 10/M01 A3023 RMK AO2 T01041006
Observed Flight Rules
Dec-16 @ 22:35 UTC
(21 minutes ago)
VFR
Clouds
  • Clear skies
Temperature Dewpoint
10°C / 50°F -1°C / 30°F
Humidity Altimeter Pressure
47% 30.23" Hg 1024 hPa